sensor_id;sensor_type;location;lat;lon;timestamp;pressure;altitude;pressure_sealevel;temperature;humidity
12468;BME280;57850;52.922;6.256;2022-08-25T00:00:58;101542.81;;;22.88;100.00
12468;BME280;57850;52.922;6.256;2022-08-25T00:03:27;101541.50;;;22.94;100.00
12468;BME280;57850;52.922;6.256;2022-08-25T00:05:53;101553.38;;;23.01;100.00
12468;BME280;57850;52.922;6.256;2022-08-25T00:08:20;101559.44;;;23.03;100.00
12468;BME280;57850;52.922;6.256;2022-08-25T00:10:46;101557.47;;;22.83;100.00
12468;BME280;57850;52.922;6.256;2022-08-25T00:13:14;101554.34;;;22.89;100.00
12468;BME280;57850;52.922;6.256;2022-08-25T00:15:40;101558.91;;;22.87;100.00
12468;BME280;57850;52.922;6.256;2022-08-25T00:18:07;101572.09;;;22.88;100.00
12468;BME280;57850;52.922;6.256;2022-08-25T00:20:33;101573.22;;;22.97;100.00
12468;BME280;57850;52.922;6.256;2022-08-25T00:23:00;101584.47;;;23.01;100.00
12468;BME280;57850;52.922;6.256;2022-08-25T00:25:27;101592.59;;;22.99;100.00
12468;BME280;57850;52.922;6.256;2022-08-25T00:27:53;101597.78;;;23.01;100.00
12468;BME280;57850;52.922;6.256;2022-08-25T00:30:21;101606.00;;;22.98;100.00
12468;BME280;57850;52.922;6.256;2022-08-25T00:32:48;101611.34;;;22.98;100.00
12468;BME280;57850;52.922;6.256;2022-08-25T00:35:15;101618.38;;;22.99;100.00
12468;BME280;57850;52.922;6.256;2022-08-25T00:37:41;101621.88;;;22.99;100.00
12468;BME280;57850;52.922;6.256;2022-08-25T00:40:08;101632.31;;;23.02;100.00
12468;BME280;57850;52.922;6.256;2022-08-25T00:42:35;101634.91;;;22.91;100.00
12468;BME280;57850;52.922;6.256;2022-08-25T00:45:03;101638.41;;;22.91;100.00
12468;BME280;57850;52.922;6.256;2022-08-25T00:47:32;101636.50;;;22.70;100.00
12468;BME280;57850;52.922;6.256;2022-08-25T00:50:00;101611.78;;;22.44;100.00
12468;BME280;57850;52.922;6.256;2022-08-25T00:52:30;101618.25;;;22.53;100.00
12468;BME280;57850;52.922;6.256;2022-08-25T00:55:01;101634.47;;;22.73;100.00
12468;BME280;57850;52.922;6.256;2022-08-25T00:57:31;101648.19;;;22.80;100.00
12468;BME280;57850;52.922;6.256;2022-08-25T01:00:00;101669.75;;;22.88;100.00
12468;BME280;57850;52.922;6.256;2022-08-25T01:02:27;101679.53;;;22.87;100.00
12468;BME280;57850;52.922;6.256;2022-08-25T01:04:55;101682.16;;;22.76;100.00
12468;BME280;57850;52.922;6.256;2022-08-25T01:07:23;101681.84;;;22.68;100.00
12468;BME280;57850;52.922;6.256;2022-08-25T01:09:51;101680.00;;;22.45;100.00
12468;BME280;57850;52.922;6.256;2022-08-25T01:12:18;101685.78;;;22.63;100.00
12468;BME280;57850;52.922;6.256;2022-08-25T01:14:47;101684.78;;;22.40;100.00
12468;BME280;57850;52.922;6.256;2022-08-25T01:17:14;101692.81;;;22.64;100.00
12468;BME280;57850;52.922;6.256;2022-08-25T01:19:41;101709.84;;;22.74;100.00
12468;BME280;57850;52.922;6.256;2022-08-25T01:22:09;101723.16;;;22.74;100.00
12468;BME280;57850;52.922;6.256;2022-08-25T01:24:46;101728.34;;;22.75;100.00
12468;BME280;57850;52.922;6.256;2022-08-25T01:27:16;101747.28;;;22.83;100.00
12468;BME280;57850;52.922;6.256;2022-08-25T01:29:42;101755.78;;;22.88;100.00
12468;BME280;57850;52.922;6.256;2022-08-25T01:32:11;101764.53;;;22.78;100.00
12468;BME280;57850;52.922;6.256;2022-08-25T01:34:42;101769.63;;;22.81;100.00
12468;BME280;57850;52.922;6.256;2022-08-25T01:37:13;101767.09;;;22.79;100.00
12468;BME280;57850;52.922;6.256;2022-08-25T01:39:40;101766.91;;;22.70;100.00
12468;BME280;57850;52.922;6.256;2022-08-25T01:42:23;101787.94;;;22.85;100.00
12468;BME280;57850;52.922;6.256;2022-08-25T01:44:54;101798.59;;;22.85;100.00
12468;BME280;57850;52.922;6.256;2022-08-25T01:47:21;101799.94;;;22.91;100.00
12468;BME280;57850;52.922;6.256;2022-08-25T01:49:48;101803.19;;;22.83;100.00
12468;BME280;57850;52.922;6.256;2022-08-25T01:52:22;101808.09;;;22.77;100.00
12468;BME280;57850;52.922;6.256;2022-08-25T01:54:49;101810.53;;;22.80;100.00
12468;BME280;57850;52.922;6.256;2022-08-25T01:57:16;101821.97;;;22.93;100.00
12468;BME280;57850;52.922;6.256;2022-08-25T01:59:42;101822.19;;;22.90;100.00
12468;BME280;57850;52.922;6.256;2022-08-25T02:02:10;101826.38;;;22.81;100.00
12468;BME280;57850;52.922;6.256;2022-08-25T02:04:36;101824.16;;;22.75;100.00
12468;BME280;57850;52.922;6.256;2022-08-25T02:07:06;101815.44;;;22.73;100.00
12468;BME280;57850;52.922;6.256;2022-08-25T02:09:36;101824.38;;;22.72;100.00
12468;BME280;57850;52.922;6.256;2022-08-25T02:12:03;101825.31;;;22.71;100.00
12468;BME280;57850;52.922;6.256;2022-08-25T02:14:29;101814.38;;;22.76;100.00
12468;BME280;57850;52.922;6.256;2022-08-25T02:16:56;101821.50;;;22.75;100.00
12468;BME280;57850;52.922;6.256;2022-08-25T02:19:23;101822.88;;;22.68;100.00
12468;BME280;57850;52.922;6.256;2022-08-25T02:21:52;101823.00;;;22.67;100.00
12468;BME280;57850;52.922;6.256;2022-08-25T02:24:20;101838.03;;;22.68;100.00
12468;BME280;57850;52.922;6.256;2022-08-25T02:26:48;101845.03;;;22.69;100.00
12468;BME280;57850;52.922;6.256;2022-08-25T02:29:15;101843.44;;;22.66;100.00
12468;BME280;57850;52.922;6.256;2022-08-25T02:31:43;101857.16;;;22.73;100.00
12468;BME280;57850;52.922;6.256;2022-08-25T02:34:10;101852.28;;;22.67;100.00
12468;BME280;57850;52.922;6.256;2022-08-25T02:36:37;101851.44;;;22.66;100.00
12468;BME280;57850;52.922;6.256;2022-08-25T02:39:06;101869.19;;;22.66;100.00
12468;BME280;57850;52.922;6.256;2022-08-25T02:41:33;101868.03;;;22.70;100.00
12468;BME280;57850;52.922;6.256;2022-08-25T02:44:02;101869.75;;;22.71;100.00
12468;BME280;57850;52.922;6.256;2022-08-25T02:46:29;101877.81;;;22.69;100.00
12468;BME280;57850;52.922;6.256;2022-08-25T02:48:56;101882.41;;;22.67;100.00
12468;BME280;57850;52.922;6.256;2022-08-25T02:51:24;101883.53;;;22.63;100.00
12468;BME280;57850;52.922;6.256;2022-08-25T02:53:52;101901.75;;;22.69;100.00
12468;BME280;57850;52.922;6.256;2022-08-25T02:56:19;101895.72;;;22.67;100.00
12468;BME280;57850;52.922;6.256;2022-08-25T02:58:46;101898.78;;;22.74;100.00
12468;BME280;57850;52.922;6.256;2022-08-25T03:01:15;101896.13;;;22.74;100.00
12468;BME280;57850;52.922;6.256;2022-08-25T03:03:43;101894.91;;;22.53;100.00
12468;BME280;57850;52.922;6.256;2022-08-25T03:06:11;101910.81;;;22.67;100.00
12468;BME280;57850;52.922;6.256;2022-08-25T03:08:39;101912.06;;;22.61;100.00
12468;BME280;57850;52.922;6.256;2022-08-25T03:11:06;101913.97;;;22.59;100.00
12468;BME280;57850;52.922;6.256;2022-08-25T03:13:33;101917.81;;;22.55;100.00
12468;BME280;57850;52.922;6.256;2022-08-25T03:16:01;101911.44;;;22.58;100.00
12468;BME280;57850;52.922;6.256;2022-08-25T03:18:29;101907.78;;;22.59;100.00
12468;BME280;57850;52.922;6.256;2022-08-25T03:20:56;101909.28;;;22.63;100.00
12468;BME280;57850;52.922;6.256;2022-08-25T03:23:22;101919.06;;;22.62;100.00
12468;BME280;57850;52.922;6.256;2022-08-25T03:25:49;101913.09;;;22.59;100.00
12468;BME280;57850;52.922;6.256;2022-08-25T03:28:33;101909.50;;;22.60;100.00
12468;BME280;57850;52.922;6.256;2022-08-25T03:31:00;101905.25;;;22.57;100.00
12468;BME280;57850;52.922;6.256;2022-08-25T03:33:29;101905.56;;;22.53;100.00
12468;BME280;57850;52.922;6.256;2022-08-25T03:35:56;101911.44;;;22.58;100.00
12468;BME280;57850;52.922;6.256;2022-08-25T03:38:23;101910.88;;;22.53;100.00
12468;BME280;57850;52.922;6.256;2022-08-25T03:40:51;101907.91;;;22.45;100.00
12468;BME280;57850;52.922;6.256;2022-08-25T03:43:18;101908.13;;;22.54;100.00
12468;BME280;57850;52.922;6.256;2022-08-25T03:45:45;101901.41;;;22.36;100.00
12468;BME280;57850;52.922;6.256;2022-08-25T03:48:13;101902.06;;;22.39;100.00
12468;BME280;57850;52.922;6.256;2022-08-25T03:50:44;101899.59;;;22.49;100.00
12468;BME280;57850;52.922;6.256;2022-08-25T03:53:11;101893.97;;;22.41;100.00
12468;BME280;57850;52.922;6.256;2022-08-25T03:55:37;101893.88;;;22.42;100.00
12468;BME280;57850;52.922;6.256;2022-08-25T03:58:05;101890.44;;;22.40;100.00
12468;BME280;57850;52.922;6.256;2022-08-25T04:00:31;101894.69;;;22.43;100.00
12468;BME280;57850;52.922;6.256;2022-08-25T04:02:58;101889.94;;;22.35;100.00
12468;BME280;57850;52.922;6.256;2022-08-25T04:05:25;101882.25;;;22.31;100.00
12468;BME280;57850;52.922;6.256;2022-08-25T04:07:53;101886.91;;;22.27;100.00
12468;BME280;57850;52.922;6.256;2022-08-25T04:10:20;101877.69;;;22.20;100.00
12468;BME280;57850;52.922;6.256;2022-08-25T04:12:46;101873.72;;;22.13;100.00
12468;BME280;57850;52.922;6.256;2022-08-25T04:15:13;101883.94;;;22.19;100.00
12468;BME280;57850;52.922;6.256;2022-08-25T04:17:40;101881.91;;;22.10;100.00
12468;BME280;57850;52.922;6.256;2022-08-25T04:20:08;101887.56;;;22.18;100.00
12468;BME280;57850;52.922;6.256;2022-08-25T04:22:36;101889.34;;;22.18;100.00
12468;BME280;57850;52.922;6.256;2022-08-25T04:25:05;101886.16;;;22.13;100.00
12468;BME280;57850;52.922;6.256;2022-08-25T04:27:32;101878.19;;;22.13;100.00
12468;BME280;57850;52.922;6.256;2022-08-25T04:29:59;101877.91;;;22.17;100.00
12468;BME280;57850;52.922;6.256;2022-08-25T04:32:25;101875.75;;;22.10;100.00
12468;BME280;57850;52.922;6.256;2022-08-25T04:34:52;101871.38;;;22.21;100.00
12468;BME280;57850;52.922;6.256;2022-08-25T04:37:18;101881.19;;;22.08;100.00
12468;BME280;57850;52.922;6.256;2022-08-25T04:39:45;101865.44;;;22.05;100.00
12468;BME280;57850;52.922;6.256;2022-08-25T04:42:13;101867.13;;;22.06;100.00
12468;BME280;57850;52.922;6.256;2022-08-25T04:44:39;101867.75;;;22.10;100.00
12468;BME280;57850;52.922;6.256;2022-08-25T04:47:06;101873.59;;;22.15;100.00
12468;BME280;57850;52.922;6.256;2022-08-25T04:49:34;101861.50;;;22.11;100.00
12468;BME280;57850;52.922;6.256;2022-08-25T04:52:01;101869.91;;;22.17;100.00
12468;BME280;57850;52.922;6.256;2022-08-25T04:54:28;101863.94;;;22.14;100.00
12468;BME280;57850;52.922;6.256;2022-08-25T04:56:54;101869.69;;;22.08;100.00
12468;BME280;57850;52.922;6.256;2022-08-25T04:59:22;101858.63;;;22.14;100.00
12468;BME280;57850;52.922;6.256;2022-08-25T05:01:49;101865.84;;;22.12;100.00
12468;BME280;57850;52.922;6.256;2022-08-25T05:04:15;101852.22;;;22.04;100.00
12468;BME280;57850;52.922;6.256;2022-08-25T05:06:42;101854.81;;;22.05;100.00
12468;BME280;57850;52.922;6.256;2022-08-25T05:09:09;101849.69;;;22.15;100.00
12468;BME280;57850;52.922;6.256;2022-08-25T05:11:36;101853.75;;;22.08;100.00
12468;BME280;57850;52.922;6.256;2022-08-25T05:14:02;101852.44;;;22.01;100.00
12468;BME280;57850;52.922;6.256;2022-08-25T05:16:30;101852.44;;;22.01;100.00
12468;BME280;57850;52.922;6.256;2022-08-25T05:18:58;101865.53;;;22.04;100.00
12468;BME280;57850;52.922;6.256;2022-08-25T05:21:26;101857.03;;;21.99;100.00
12468;BME280;57850;52.922;6.256;2022-08-25T05:23:54;101862.22;;;22.00;100.00
12468;BME280;57850;52.922;6.256;2022-08-25T05:26:22;101869.13;;;22.03;100.00
12468;BME280;57850;52.922;6.256;2022-08-25T05:28:52;101871.16;;;22.12;100.00
12468;BME280;57850;52.922;6.256;2022-08-25T05:31:20;101873.81;;;22.12;100.00
12468;BME280;57850;52.922;6.256;2022-08-25T05:33:48;101871.38;;;22.09;100.00
12468;BME280;57850;52.922;6.256;2022-08-25T05:36:15;101868.28;;;22.15;100.00
12468;BME280;57850;52.922;6.256;2022-08-25T05:38:42;101868.84;;;22.20;100.00
12468;BME280;57850;52.922;6.256;2022-08-25T05:41:11;101864.81;;;22.27;100.00
12468;BME280;57850;52.922;6.256;2022-08-25T05:43:40;101869.16;;;22.28;100.00
12468;BME280;57850;52.922;6.256;2022-08-25T05:46:08;101869.50;;;22.36;100.00
12468;BME280;57850;52.922;6.256;2022-08-25T05:48:35;101878.13;;;22.39;100.00
12468;BME280;57850;52.922;6.256;2022-08-25T05:51:05;101878.00;;;22.41;100.00
12468;BME280;57850;52.922;6.256;2022-08-25T05:53:32;101877.28;;;22.39;100.00
12468;BME280;57850;52.922;6.256;2022-08-25T05:55:59;101874.19;;;22.45;100.00
12468;BME280;57850;52.922;6.256;2022-08-25T05:58:27;101871.19;;;22.62;100.00
12468;BME280;57850;52.922;6.256;2022-08-25T06:00:55;101880.25;;;22.60;100.00
12468;BME280;57850;52.922;6.256;2022-08-25T06:03:22;101881.81;;;22.62;100.00
12468;BME280;57850;52.922;6.256;2022-08-25T06:05:48;101881.97;;;22.73;100.00
12468;BME280;57850;52.922;6.256;2022-08-25T06:08:15;101881.84;;;22.75;100.00
12468;BME280;57850;52.922;6.256;2022-08-25T06:10:42;101893.31;;;22.63;100.00
12468;BME280;57850;52.922;6.256;2022-08-25T06:13:09;101881.97;;;22.86;100.00
12468;BME280;57850;52.922;6.256;2022-08-25T06:15:37;101884.81;;;22.96;100.00
12468;BME280;57850;52.922;6.256;2022-08-25T06:18:04;101887.78;;;22.91;100.00
12468;BME280;57850;52.922;6.256;2022-08-25T06:20:31;101890.47;;;22.91;100.00
12468;BME280;57850;52.922;6.256;2022-08-25T06:22:58;101891.16;;;23.06;100.00
12468;BME280;57850;52.922;6.256;2022-08-25T06:25:26;101891.06;;;23.07;100.00
12468;BME280;57850;52.922;6.256;2022-08-25T06:27:56;101895.75;;;23.04;100.00
12468;BME280;57850;52.922;6.256;2022-08-25T06:30:23;101893.78;;;23.18;100.00
12468;BME280;57850;52.922;6.256;2022-08-25T06:32:49;101893.97;;;23.28;100.00
12468;BME280;57850;52.922;6.256;2022-08-25T06:35:18;101891.66;;;23.23;100.00
12468;BME280;57850;52.922;6.256;2022-08-25T06:37:45;101892.16;;;23.41;100.00
12468;BME280;57850;52.922;6.256;2022-08-25T06:40:13;101893.44;;;23.35;100.00
12468;BME280;57850;52.922;6.256;2022-08-25T06:42:41;101893.44;;;23.48;100.00
12468;BME280;57850;52.922;6.256;2022-08-25T06:45:08;101898.06;;;23.57;100.00
12468;BME280;57850;52.922;6.256;2022-08-25T06:47:35;101900.78;;;23.68;100.00
12468;BME280;57850;52.922;6.256;2022-08-25T06:50:02;101894.56;;;23.57;100.00
12468;BME280;57850;52.922;6.256;2022-08-25T06:52:29;101899.38;;;23.52;100.00
12468;BME280;57850;52.922;6.256;2022-08-25T06:54:55;101912.56;;;23.53;100.00
12468;BME280;57850;52.922;6.256;2022-08-25T06:57:22;101906.28;;;23.78;100.00
12468;BME280;57850;52.922;6.256;2022-08-25T06:59:50;101921.09;;;23.82;100.00
12468;BME280;57850;52.922;6.256;2022-08-25T07:02:17;101930.38;;;24.00;100.00
12468;BME280;57850;52.922;6.256;2022-08-25T07:04:44;101910.03;;;23.99;100.00
12468;BME280;57850;52.922;6.256;2022-08-25T07:07:11;101930.28;;;24.02;100.00
12468;BME280;57850;52.922;6.256;2022-08-25T07:09:38;101919.66;;;24.13;100.00
12468;BME280;57850;52.922;6.256;2022-08-25T07:12:05;101918.78;;;24.36;100.00
12468;BME280;57850;52.922;6.256;2022-08-25T07:14:32;101917.22;;;24.44;100.00
12468;BME280;57850;52.922;6.256;2022-08-25T07:17:01;101908.84;;;24.49;100.00
12468;BME280;57850;52.922;6.256;2022-08-25T07:19:28;101907.03;;;24.61;100.00
12468;BME280;57850;52.922;6.256;2022-08-25T07:21:54;101916.38;;;24.66;100.00
12468;BME280;57850;52.922;6.256;2022-08-25T07:24:21;101918.81;;;24.58;100.00
12468;BME280;57850;52.922;6.256;2022-08-25T07:26:49;101931.56;;;24.66;100.00
12468;BME280;57850;52.922;6.256;2022-08-25T07:29:18;101938.50;;;24.79;100.00
12468;BME280;57850;52.922;6.256;2022-08-25T07:31:45;101933.94;;;24.92;100.00
12468;BME280;57850;52.922;6.256;2022-08-25T07:34:14;101937.31;;;25.28;100.00
12468;BME280;57850;52.922;6.256;2022-08-25T07:36:59;101943.25;;;25.42;100.00
12468;BME280;57850;52.922;6.256;2022-08-25T07:39:29;101952.56;;;25.48;100.00
12468;BME280;57850;52.922;6.256;2022-08-25T07:41:56;101963.75;;;25.42;100.00
12468;BME280;57850;52.922;6.256;2022-08-25T07:44:24;101969.56;;;25.69;100.00
12468;BME280;57850;52.922;6.256;2022-08-25T07:46:51;101973.28;;;25.89;100.00
12468;BME280;57850;52.922;6.256;2022-08-25T07:49:20;101976.00;;;26.21;100.00
12468;BME280;57850;52.922;6.256;2022-08-25T07:51:47;101985.06;;;26.29;100.00
12468;BME280;57850;52.922;6.256;2022-08-25T07:54:13;101982.53;;;26.48;100.00
12468;BME280;57850;52.922;6.256;2022-08-25T07:56:40;101987.59;;;26.63;100.00
12468;BME280;57850;52.922;6.256;2022-08-25T07:59:07;101990.31;;;26.93;100.00
12468;BME280;57850;52.922;6.256;2022-08-25T08:01:34;101996.78;;;26.70;100.00
12468;BME280;57850;52.922;6.256;2022-08-25T08:04:01;101997.94;;;27.18;100.00
12468;BME280;57850;52.922;6.256;2022-08-25T08:06:29;101995.69;;;27.53;100.00
12468;BME280;57850;52.922;6.256;2022-08-25T08:08:56;102003.91;;;27.31;100.00
12468;BME280;57850;52.922;6.256;2022-08-25T08:11:26;102010.94;;;27.32;100.00
12468;BME280;57850;52.922;6.256;2022-08-25T08:13:54;101995.69;;;27.53;100.00
12468;BME280;57850;52.922;6.256;2022-08-25T08:16:24;102002.94;;;27.72;100.00
12468;BME280;57850;52.922;6.256;2022-08-25T08:18:51;102004.56;;;27.54;100.00
12468;BME280;57850;52.922;6.256;2022-08-25T08:21:19;101999.53;;;27.80;100.00
12468;BME280;57850;52.922;6.256;2022-08-25T08:23:49;102007.50;;;28.00;100.00
12468;BME280;57850;52.922;6.256;2022-08-25T08:26:16;102014.16;;;28.54;100.00
12468;BME280;57850;52.922;6.256;2022-08-25T08:28:43;102010.34;;;28.08;100.00
12468;BME280;57850;52.922;6.256;2022-08-25T08:31:10;102019.69;;;28.33;100.00
12468;BME280;57850;52.922;6.256;2022-08-25T08:33:37;102003.00;;;28.49;100.00
12468;BME280;57850;52.922;6.256;2022-08-25T08:36:06;102010.06;;;28.69;100.00
12468;BME280;57850;52.922;6.256;2022-08-25T08:38:34;102000.84;;;28.81;100.00
12468;BME280;57850;52.922;6.256;2022-08-25T08:41:13;102011.00;;;29.61;100.00
12468;BME280;57850;52.922;6.256;2022-08-25T08:44:06;102010.97;;;29.43;100.00
12468;BME280;57850;52.922;6.256;2022-08-25T08:46:39;102009.78;;;29.55;100.00
12468;BME280;57850;52.922;6.256;2022-08-25T08:49:17;102006.41;;;30.34;100.00
12468;BME280;57850;52.922;6.256;2022-08-25T08:51:55;102011.38;;;30.64;100.00
12468;BME280;57850;52.922;6.256;2022-08-25T08:54:24;102003.19;;;30.73;100.00
12468;BME280;57850;52.922;6.256;2022-08-25T08:57:03;102007.16;;;30.87;100.00
12468;BME280;57850;52.922;6.256;2022-08-25T08:59:39;101994.44;;;31.23;100.00
12468;BME280;57850;52.922;6.256;2022-08-25T09:02:13;101981.53;;;31.09;100.00
12468;BME280;57850;52.922;6.256;2022-08-25T09:04:42;101977.81;;;31.44;100.00
12468;BME280;57850;52.922;6.256;2022-08-25T09:07:13;101978.47;;;31.79;100.00
12468;BME280;57850;52.922;6.256;2022-08-25T09:09:42;101974.09;;;31.95;100.00
12468;BME280;57850;52.922;6.256;2022-08-25T09:12:12;101961.13;;;32.06;99.52
12468;BME280;57850;52.922;6.256;2022-08-25T09:15:00;101932.91;;;32.25;96.85
12468;BME280;57850;52.922;6.256;2022-08-25T09:17:44;101934.34;;;31.55;96.10
12468;BME280;57850;52.922;6.256;2022-08-25T09:20:28;101939.25;;;31.51;96.87
12468;BME280;57850;52.922;6.256;2022-08-25T09:23:02;101932.38;;;32.62;97.14
12468;BME280;57850;52.922;6.256;2022-08-25T09:25:40;101918.31;;;32.74;94.75
12468;BME280;57850;52.922;6.256;2022-08-25T09:28:18;101912.59;;;32.61;94.59
12468;BME280;57850;52.922;6.256;2022-08-25T09:30:50;101909.09;;;32.36;93.22
12468;BME280;57850;52.922;6.256;2022-08-25T09:33:21;101889.06;;;32.86;92.95
12468;BME280;57850;52.922;6.256;2022-08-25T09:35:49;101880.31;;;32.76;91.77
12468;BME280;57850;52.922;6.256;2022-08-25T09:38:16;101881.88;;;33.09;92.06
12468;BME280;57850;52.922;6.256;2022-08-25T09:40:45;101825.00;;;34.52;89.50
12468;BME280;57850;52.922;6.256;2022-08-25T09:43:21;101783.81;;;35.56;86.90
12468;BME280;57850;52.922;6.256;2022-08-25T09:45:56;101791.97;;;35.56;85.50
12468;BME280;57850;52.922;6.256;2022-08-25T09:48:25;101747.66;;;36.93;83.95
12468;BME280;57850;52.922;6.256;2022-08-25T09:50:57;101801.97;;;34.92;84.66
12468;BME280;57850;52.922;6.256;2022-08-25T09:53:25;101769.34;;;35.98;83.33
12468;BME280;57850;52.922;6.256;2022-08-25T09:55:56;101755.22;;;36.50;82.54
12468;BME280;57850;52.922;6.256;2022-08-25T09:58:26;101754.44;;;36.63;82.17
12468;BME280;57850;52.922;6.256;2022-08-25T10:01:10;101782.03;;;34.85;82.33
12468;BME280;57850;52.922;6.256;2022-08-25T10:03:52;101779.88;;;34.95;83.20
12468;BME280;57850;52.922;6.256;2022-08-25T10:06:19;101776.09;;;35.32;82.75
12468;BME280;57850;52.922;6.256;2022-08-25T10:08:53;101761.94;;;36.13;81.64
12468;BME280;57850;52.922;6.256;2022-08-25T10:11:40;101710.41;;;37.66;79.57
12468;BME280;57850;52.922;6.256;2022-08-25T10:14:18;101700.72;;;38.02;78.35
12468;BME280;57850;52.922;6.256;2022-08-25T10:16:45;101666.28;;;38.59;77.63
12468;BME280;57850;52.922;6.256;2022-08-25T10:19:22;101727.25;;;36.63;78.88
12468;BME280;57850;52.922;6.256;2022-08-25T10:22:03;101725.50;;;35.73;78.62
12468;BME280;57850;52.922;6.256;2022-08-25T10:24:30;101658.56;;;38.05;75.79
12468;BME280;57850;52.922;6.256;2022-08-25T10:27:00;101667.00;;;38.41;75.45
12468;BME280;57850;52.922;6.256;2022-08-25T10:29:44;101668.72;;;37.32;74.78
12468;BME280;57850;52.922;6.256;2022-08-25T10:32:23;101670.66;;;37.12;75.46
12468;BME280;57850;52.922;6.256;2022-08-25T10:34:53;101668.34;;;36.35;75.10
12468;BME280;57850;52.922;6.256;2022-08-25T10:37:27;101605.22;;;38.16;72.53
12468;BME280;57850;52.922;6.256;2022-08-25T10:40:05;101649.88;;;35.77;72.95
12468;BME280;57850;52.922;6.256;2022-08-25T10:42:38;101625.59;;;37.16;72.62
12468;BME280;57850;52.922;6.256;2022-08-25T10:45:16;101590.38;;;38.81;70.80
12468;BME280;57850;52.922;6.256;2022-08-25T10:48:15;101627.56;;;36.35;71.52
12468;BME280;57850;52.922;6.256;2022-08-25T10:50:46;101596.72;;;37.02;71.05
12468;BME280;57850;52.922;6.256;2022-08-25T10:53:24;101601.63;;;37.71;70.54
12468;BME280;57850;52.922;6.256;2022-08-25T10:56:03;101607.38;;;37.17;71.38
12468;BME280;57850;52.922;6.256;2022-08-25T11:02:07;101573.41;;;38.97;70.39
12468;BME280;57850;52.922;6.256;2022-08-25T11:04:39;101565.88;;;37.98;69.16
12468;BME280;57850;52.922;6.256;2022-08-25T11:07:21;101598.78;;;37.13;70.89
12468;BME280;57850;52.922;6.256;2022-08-25T11:09:49;101579.66;;;38.10;71.10
12468;BME280;57850;52.922;6.256;2022-08-25T11:12:25;101566.84;;;38.11;70.26
12468;BME280;57850;52.922;6.256;2022-08-25T11:14:57;101524.78;;;37.36;66.99
12468;BME280;57850;52.922;6.256;2022-08-25T11:17:34;101569.44;;;36.49;68.91
12468;BME280;57850;52.922;6.256;2022-08-25T11:20:07;101580.28;;;37.41;70.89
12468;BME280;57850;52.922;6.256;2022-08-25T11:22:41;101523.53;;;39.26;67.42
12468;BME280;57850;52.922;6.256;2022-08-25T11:25:15;101475.94;;;40.99;66.03
12468;BME280;57850;52.922;6.256;2022-08-25T11:27:45;101499.28;;;40.55;66.71
12468;BME280;57850;52.922;6.256;2022-08-25T11:30:15;101489.34;;;40.31;65.98
12468;BME280;57850;52.922;6.256;2022-08-25T11:32:46;101479.97;;;40.85;65.89
12468;BME280;57850;52.922;6.256;2022-08-25T11:35:15;101518.41;;;38.93;66.93
12468;BME280;57850;52.922;6.256;2022-08-25T11:37:45;101511.25;;;39.53;67.05
12468;BME280;57850;52.922;6.256;2022-08-25T11:40:48;101478.13;;;39.07;64.75
12468;BME280;57850;52.922;6.256;2022-08-25T11:43:31;101478.56;;;39.77;65.67
12468;BME280;57850;52.922;6.256;2022-08-25T11:46:16;101452.72;;;41.53;64.42
12468;BME280;57850;52.922;6.256;2022-08-25T11:48:58;101458.78;;;40.04;63.69
12468;BME280;57850;52.922;6.256;2022-08-25T11:51:29;101460.22;;;40.72;64.06
12468;BME280;57850;52.922;6.256;2022-08-25T11:54:15;101460.63;;;40.10;63.28
12468;BME280;57850;52.922;6.256;2022-08-25T11:56:51;101438.66;;;40.98;62.66
12468;BME280;57850;52.922;6.256;2022-08-25T12:02:36;101443.56;;;40.96;63.31
12468;BME280;57850;52.922;6.256;2022-08-25T12:05:07;101425.75;;;41.22;62.11
12468;BME280;57850;52.922;6.256;2022-08-25T12:07:59;101448.16;;;41.19;63.38
12468;BME280;57850;52.922;6.256;2022-08-25T12:11:00;101419.44;;;41.22;62.27
12468;BME280;57850;52.922;6.256;2022-08-25T12:13:44;101408.22;;;39.72;60.18
12468;BME280;57850;52.922;6.256;2022-08-25T12:16:37;101442.19;;;38.49;62.52
12468;BME280;57850;52.922;6.256;2022-08-25T12:19:26;101443.44;;;37.59;62.92
12468;BME280;57850;52.922;6.256;2022-08-25T12:21:56;101450.69;;;37.72;63.39
12468;BME280;57850;52.922;6.256;2022-08-25T12:24:42;101459.50;;;38.36;63.39
12468;BME280;57850;52.922;6.256;2022-08-25T12:27:22;101448.69;;;38.48;62.86
12468;BME280;57850;52.922;6.256;2022-08-25T12:29:54;101462.97;;;38.50;63.50
12468;BME280;57850;52.922;6.256;2022-08-25T12:32:39;101404.63;;;40.71;61.74
12468;BME280;57850;52.922;6.256;2022-08-25T12:35:25;101407.00;;;40.09;61.69
12468;BME280;57850;52.922;6.256;2022-08-25T12:37:58;101417.41;;;41.17;61.87
12468;BME280;57850;52.922;6.256;2022-08-25T12:40:28;101399.03;;;40.20;61.57
12468;BME280;57850;52.922;6.256;2022-08-25T12:43:11;101398.38;;;41.50;61.83
12468;BME280;57850;52.922;6.256;2022-08-25T12:45:44;101384.16;;;41.53;61.07
12468;BME280;57850;52.922;6.256;2022-08-25T12:48:41;101364.22;;;41.58;60.01
12468;BME280;57850;52.922;6.256;2022-08-25T12:51:15;101370.22;;;41.72;59.63
12468;BME280;57850;52.922;6.256;2022-08-25T12:53:46;101354.72;;;41.94;59.17
12468;BME280;57850;52.922;6.256;2022-08-25T12:56:21;101360.47;;;40.68;59.39
12468;BME280;57850;52.922;6.256;2022-08-25T12:58:54;101401.09;;;39.53;61.00
12468;BME280;57850;52.922;6.256;2022-08-25T13:01:31;101382.56;;;40.08;61.07
12468;BME280;57850;52.922;6.256;2022-08-25T13:04:31;101372.66;;;39.42;58.77
12468;BME280;57850;52.922;6.256;2022-08-25T13:07:13;101361.56;;;40.55;59.32